Auch, France

2:07 PM CEST on May 28, 2015 (GMT +0200)
IMIDIPYR17 | | Change Station
CLOSE
Current Station
Personal Weather Station
Location: Mirande, MIDI-PYReNeES
Elevation: 709 ft
Nearby Weather Stations

Elev 709 ft 43.52 °N, 0.39 °E | Updated 1 minute ago

Clear
Clear
73.5 °F
Feels Like 77 °F
N
4.0
Wind Variable Wind from WNW
Gusts 5.0 mph

Today
High -- | Low -- °F
--% Chance of Precip.
Yesterday
High -- | Low -- °F
Precip. -- in
6:21 AM 9:28 PM
Waxing Gibbous, 75% visible
Pressure 30.09 in
Visibility -9999.0 miles
Clouds
Heat Index 77 °F
Dew Point 54 °F
Humidity 51%
Rainfall 0.00 in
Snow Depth Not available.
UV 9.9 out of 12
Pollen Not available.
Air Quality Not available.
Flu Activity Not available.
METAR LFBA 281200Z AUTO VRB04KT CAVOK 24/11 Q1019

More Conditions Fewer Conditions

Pressure 30.09 in
Visibility -9999.0 miles
Clouds
Heat Index 77 °F
Dew Point 54 °F
Humidity 51%
Rainfall 0.00 in
Snow Depth Not available.
UV 9.9 out of 12
Pollen Not available.
Air Quality Not available.
Flu Activity Not available.
METAR LFBA 281200Z AUTO VRB04KT CAVOK 24/11 Q1019

More Conditions Fewer Conditions

10-Day Weather Forecast

Almanac

Astronomy

May. 28, 2015 Rise Set
Actual Time
Civil Twilight
Nautical Twilight
Astronomical Twilight
Moon
Length of Visible Light
Length of Day
Tomorrow will be .
, % of the Moon is Illuminated

Today's Extremes

Country Highs Country Lows

Community

WunderPhotos

Upload Photos

1,824,961 photos uploaded!

WunderBlogs® & News

Nearby

Air Quality

  Air Quality AQ Index Pollutant
Not available.

Snow Depth

Station Depth Elevation

Earthquake Activity

City Distance Mag. Time & Date
Minimum magnitude displayed is 2.5.

Coastal Water Temperatures

Place Temperature

Stations

Nearby Weather Stations

Station Location Temp. Windchill Dew Point Humidity Wind Precip. Elev Updated Type